Time;durP1;ratioP1;P1;durP2;ratioP2;P2;SDS_P1;SDS_P2;PMS_P1;PMS_P2;Temp;Humidity;BMP_temperature;BMP_pressure;BME280_temperature;BME280_humidity;BME280_pressure;Samples;Min_cycle;Max_cycle;Signal;HPM_P1;HPM_P2
2022/01/25 00:09:33;;;;;;;88.68;42.97;;;;;;;3.15;83.90;103452.56;2055067;28;44279;-73
2022/01/25 00:25:07;;;;;;;94.93;47.80;;;;;;;3.09;84.36;103459.28;2062222;28;45451;-74
2022/01/25 00:26:30;;;;;;;104.15;49.58;;;;;;;3.10;84.31;103453.16;2062766;28;45424;-74
2022/01/25 00:27:42;;;;;;;94.07;44.97;;;;;;;3.09;84.31;103451.34;2062878;28;39107;-74
2022/01/25 00:29:09;;;;;;;101.65;50.17;;;;;;;3.10;84.15;103454.06;2062648;28;43948;-74
2022/01/25 00:30:25;;;;;;;106.68;50.78;;;;;;;3.09;84.15;103453.97;2063855;28;36418;-73
2022/01/25 00:31:27;;;;;;;89.97;45.38;;;;;;;3.10;84.54;103453.16;2062099;28;44875;-74
2022/01/25 00:32:29;;;;;;;93.63;46.30;;;;;;;3.10;84.57;103453.16;2062390;28;44094;-74
2022/01/25 00:33:33;;;;;;;88.70;44.83;;;;;;;3.10;84.54;103455.81;2063148;28;46051;-74
2022/01/25 00:34:35;;;;;;;104.30;51.10;;;;;;;3.08;84.17;103447.78;2062808;28;44303;-74
2022/01/25 00:35:39;;;;;;;104.50;52.33;;;;;;;3.08;84.47;103450.44;2063143;28;40908;-74
2022/01/25 00:36:41;;;;;;;101.45;50.33;;;;;;;3.09;84.60;103443.41;2062423;28;42080;-74
2022/01/25 00:37:42;;;;;;;90.20;47.05;;;;;;;3.10;84.39;103442.56;2062414;28;42955;-73
2022/01/25 00:38:45;;;;;;;103.68;50.65;;;;;;;3.09;84.66;103446.97;2063108;28;45771;-74
2022/01/25 00:39:47;;;;;;;109.20;53.60;;;;;;;3.08;84.97;103442.50;2062749;28;45128;-74
2022/01/25 00:40:49;;;;;;;98.63;49.78;;;;;;;3.08;84.69;103442.50;2062517;28;46182;-73
2022/01/25 00:41:50;;;;;;;101.35;50.70;;;;;;;3.08;84.61;103445.16;2059126;28;43178;-74
2022/01/25 00:42:52;;;;;;;98.95;50.22;;;;;;;3.08;84.66;103447.78;2061979;28;44049;-73
2022/01/25 00:43:59;;;;;;;97.47;50.95;;;;;;;3.06;84.28;103437.13;2064098;28;43551;-74
2022/01/25 00:45:04;;;;;;;103.50;50.40;;;;;;;3.07;83.90;103435.41;2062402;28;45690;-74
2022/01/25 00:46:10;;;;;;;99.07;48.40;;;;;;;3.08;84.37;103444.25;2062545;28;44808;-74
2022/01/25 00:47:15;;;;;;;85.05;45.03;;;;;;;3.08;84.57;103441.59;2064294;28;43438;-73
2022/01/25 00:48:30;;;;;;;97.93;48.90;;;;;;;3.08;84.63;103446.91;2063943;28;45141;-72
2022/01/25 00:49:37;;;;;;;102.93;50.13;;;;;;;3.08;84.68;103444.25;2055143;28;45638;-73
2022/01/25 00:50:41;;;;;;;90.47;46.83;;;;;;;3.08;84.95;103438.94;2056084;28;42181;-74
2022/01/25 00:53:55;;;;;;;94.35;47.63;;;;;;;3.08;84.72;103431.00;2063866;28;43761;-73
2022/01/25 00:54:58;;;;;;;92.43;46.30;;;;;;;3.08;84.80;103438.94;2065189;28;20051;-74
2022/01/25 00:56:01;;;;;;;99.75;50.17;;;;;;;3.07;84.52;103435.41;2065304;28;20575;-73
2022/01/25 00:57:03;;;;;;;96.63;52.08;;;;;;;3.07;84.59;103438.06;2063856;28;46226;-73
2022/01/25 00:58:04;;;;;;;100.53;50.80;;;;;;;3.07;84.41;103438.06;2063620;28;44660;-74
2022/01/25 00:59:12;;;;;;;97.35;50.63;;;;;;;3.07;84.60;103435.41;2064454;28;44103;-74
2022/01/25 01:00:15;;;;;;;92.70;47.65;;;;;;;3.08;85.04;103426.63;2064552;28;43950;-74
2022/01/25 01:01:19;;;;;;;97.88;50.15;;;;;;;3.06;84.89;103431.84;2063703;28;42271;-74
2022/01/25 01:02:20;;;;;;;85.57;44.88;;;;;;;3.06;84.75;103434.47;2063424;28;43517;-74
2022/01/25 01:03:26;;;;;;;101.90;50.97;;;;;;;3.06;85.14;103426.53;2065184;28;27523;-73
2022/01/25 01:04:30;;;;;;;95.40;49.08;;;;;;;3.05;85.02;103426.47;2063762;28;44218;-74
2022/01/25 01:05:32;;;;;;;97.22;50.67;;;;;;;3.06;85.08;103431.84;2064094;28;44948;-74
2022/01/25 01:06:51;;;;;;;95.28;48.65;;;;;;;3.06;85.11;103430.94;2062767;28;43829;-74
2022/01/25 01:07:53;;;;;;;93.97;49.00;;;;;;;3.06;84.82;103421.25;2063318;28;45273;-74
2022/01/25 01:08:55;;;;;;;102.13;52.22;;;;;;;3.08;85.00;103428.38;2063874;28;37926;-74
2022/01/25 01:09:59;;;;;;;101.85;51.17;;;;;;;3.05;85.19;103432.69;2063718;28;45137;-74
2022/01/25 01:11:05;;;;;;;100.38;50.80;;;;;;;3.06;84.71;103428.28;2063139;28;45376;-74
2022/01/25 01:12:15;;;;;;;105.32;51.53;;;;;;;3.05;85.06;103424.75;2064551;28;43146;-74
2022/01/25 01:13:50;;;;;;;94.40;47.13;;;;;;;3.05;84.84;103427.38;2065564;28;20038;-74
2022/01/25 01:15:03;;;;;;;85.72;45.13;;;;;;;3.05;85.32;103435.34;2066249;28;44876;-74
2022/01/25 01:28:47;;;;;;;92.78;47.97;;;;;;;3.04;84.92;103428.22;2064132;28;44195;-74
2022/01/25 01:29:58;;;;;;;95.82;46.35;;;;;;;3.02;85.17;103426.34;2064372;28;41806;-73
2022/01/25 01:39:20;;;;;;;100.38;47.97;;;;;;;3.01;85.40;103421.88;2061790;28;44035;-74
2022/01/25 01:42:52;;;;;;;104.15;50.90;;;;;;;2.99;85.64;103429.72;2064032;28;45796;-73
2022/01/25 01:43:53;;;;;;;94.93;47.90;;;;;;;3.00;85.04;103422.72;2063683;28;44221;-73
2022/01/25 01:47:23;;;;;;;98.75;49.00;;;;;;;2.98;85.49;103416.41;2064031;28;44491;-74
2022/01/25 01:48:33;;;;;;;93.05;47.13;;;;;;;2.98;85.38;103414.69;2064293;28;44303;-74
2022/01/25 01:49:44;;;;;;;92.47;46.88;;;;;;;2.98;85.77;103414.69;2064817;28;45345;-74
2022/01/25 01:50:46;;;;;;;97.68;49.20;;;;;;;2.99;85.26;103421.78;2063607;28;44960;-74
2022/01/25 01:51:49;;;;;;;96.65;49.13;;;;;;;2.98;85.86;103406.75;2063260;28;44888;-74
2022/01/25 01:52:51;;;;;;;94.93;48.60;;;;;;;2.97;85.45;103410.22;2064101;28;43953;-74
2022/01/25 01:53:56;;;;;;;85.07;45.22;;;;;;;2.98;85.22;103414.69;2064449;28;39844;-74
2022/01/25 01:54:57;;;;;;;94.95;48.70;;;;;;;2.98;85.43;103411.13;2063448;28;43968;-74
2022/01/25 01:56:00;;;;;;;98.47;49.78;;;;;;;2.98;85.44;103419.06;2063788;28;45314;-74
2022/01/25 01:57:03;;;;;;;89.72;46.15;;;;;;;2.97;85.96;103415.50;2063951;28;44728;-74
2022/01/25 01:58:05;;;;;;;100.00;49.55;;;;;;;2.99;86.05;103418.25;2063013;28;45831;-74
2022/01/25 01:59:12;;;;;;;92.38;48.03;;;;;;;2.97;85.41;103409.31;2063700;28;46068;-74
2022/01/25 02:00:17;;;;;;;95.10;47.90;;;;;;;2.97;85.49;103409.31;2063374;28;44777;-74
2022/01/25 02:01:20;;;;;;;99.70;49.67;;;;;;;2.98;85.68;103413.75;2063257;28;43891;-74
2022/01/25 02:02:22;;;;;;;96.68;48.90;;;;;;;2.97;85.80;103410.22;2064066;28;44817;-74
2022/01/25 02:03:26;;;;;;;101.70;49.10;;;;;;;2.98;85.83;103405.81;2065429;28;20125;-74
2022/01/25 02:04:28;;;;;;;89.55;45.92;;;;;;;2.98;85.73;103403.19;2064037;28;43517;-74
2022/01/25 02:05:31;;;;;;;91.80;45.80;;;;;;;2.98;85.92;103403.19;2063687;28;43178;-73
2022/01/25 02:06:33;;;;;;;81.20;42.65;;;;;;;2.97;85.75;103398.75;2063061;28;45515;-74
2022/01/25 02:07:35;;;;;;;88.30;46.47;;;;;;;2.96;85.86;103403.13;2063594;28;45720;-74
2022/01/25 02:08:37;;;;;;;97.20;49.35;;;;;;;2.96;85.86;103400.50;2055284;28;45266;-73
2022/01/25 02:09:39;;;;;;;91.28;47.03;;;;;;;2.96;85.76;103399.56;2055875;28;45328;-73
2022/01/25 02:10:43;;;;;;;93.63;48.45;;;;;;;2.96;85.39;103403.13;2064162;28;43543;-74
2022/01/25 02:11:45;;;;;;;85.43;44.97;;;;;;;2.95;86.10;103409.25;2064059;28;43168;-73
2022/01/25 02:12:49;;;;;;;89.13;45.40;;;;;;;2.95;85.97;103406.59;2063928;28;44312;-74
2022/01/25 02:13:52;;;;;;;103.03;52.03;;;;;;;2.94;85.93;103404.78;2064070;28;45412;-73
2022/01/25 02:14:55;;;;;;;95.30;48.78;;;;;;;2.96;85.96;103418.09;2062735;28;46164;-74
2022/01/25 02:16:03;;;;;;;92.72;47.22;;;;;;;2.96;85.97;103408.44;2063436;28;39074;-73
2022/01/25 02:17:13;;;;;;;85.32;43.22;;;;;;;2.96;86.17;103400.50;2063470;28;44577;-74
2022/01/25 02:22:30;;;;;;;95.10;47.55;;;;;;;2.95;86.30;103398.66;2064192;28;43116;-73
2022/01/25 02:23:32;;;;;;;94.05;46.28;;;;;;;2.97;85.90;103409.31;2063688;28;43929;-73
2022/01/25 02:24:34;;;;;;;93.25;49.30;;;;;;;2.95;86.23;103401.31;2065383;28;45927;-73
2022/01/25 02:25:35;;;;;;;95.05;47.95;;;;;;;2.95;85.60;103406.59;2064062;28;45247;-73
2022/01/25 02:26:37;;;;;;;91.22;48.35;;;;;;;2.97;86.06;103394.34;2064044;28;43923;-73
2022/01/25 02:27:39;;;;;;;92.25;46.88;;;;;;;2.97;86.07;103404.03;2062926;28;43365;-73
2022/01/25 02:28:44;;;;;;;90.82;48.17;;;;;;;2.95;86.20;103393.38;2064025;28;45048;-73
2022/01/25 02:29:46;;;;;;;98.65;50.00;;;;;;;2.95;86.10;103393.38;2063718;28;45216;-73
2022/01/25 02:30:48;;;;;;;96.45;50.22;;;;;;;2.96;86.07;103389.91;2063563;28;43143;-73
2022/01/25 02:31:53;;;;;;;92.85;48.83;;;;;;;2.96;86.39;103396.91;2063518;28;45889;-73
2022/01/25 02:32:55;;;;;;;87.93;47.03;;;;;;;2.96;86.16;103395.19;2063158;28;40801;-73
2022/01/25 02:33:57;;;;;;;92.95;47.88;;;;;;;2.96;86.42;103397.84;2063062;28;45129;-73
2022/01/25 02:35:02;;;;;;;93.15;49.42;;;;;;;2.96;85.99;103395.19;2062380;28;44664;-73
2022/01/25 02:36:11;;;;;;;91.03;48.22;;;;;;;2.96;85.75;103392.56;2063095;28;44874;-73
2022/01/25 02:37:16;;;;;;;94.07;47.58;;;;;;;2.96;86.04;103391.63;2064272;28;20973;-74
2022/01/25 02:38:30;;;;;;;94.53;50.85;;;;;;;2.95;85.58;103390.72;2062766;28;44396;-73
2022/01/25 02:39:34;;;;;;;90.22;46.60;;;;;;;2.94;85.93;103388.91;2062676;28;43665;-73
2022/01/25 02:40:36;;;;;;;88.00;46.33;;;;;;;2.95;85.80;103390.72;2062614;28;43028;-73
2022/01/25 02:41:38;;;;;;;90.60;47.92;;;;;;;2.95;85.74;103385.44;2063165;28;42419;-73
2022/01/25 02:42:39;;;;;;;87.72;46.78;;;;;;;2.95;86.41;103381.88;2062922;28;43306;-73
2022/01/25 02:43:45;;;;;;;87.22;46.53;;;;;;;2.96;86.29;103388.97;2062733;28;44417;-73
2022/01/25 02:44:48;;;;;;;84.68;46.55;;;;;;;2.95;86.21;103382.78;2063522;28;44337;-73
2022/01/25 02:46:20;;;;;;;90.68;47.80;;;;;;;2.96;86.27;103388.97;2063003;28;42429;-73
2022/01/25 02:49:05;;;;;;;87.50;45.90;;;;;;;2.95;86.05;103376.59;2063415;28;44062;-73
2022/01/25 02:50:08;;;;;;;94.78;46.90;;;;;;;2.94;86.25;103375.66;2063484;28;43622;-74
2022/01/25 02:51:09;;;;;;;83.35;44.97;;;;;;;2.95;86.44;103373.94;2062811;28;45522;-73
2022/01/25 02:52:11;;;;;;;87.70;47.78;;;;;;;2.93;86.42;103365.94;2062893;28;45389;-73
2022/01/25 02:53:12;;;;;;;84.75;43.15;;;;;;;2.94;86.23;103372.13;2063490;28;40830;-73
2022/01/25 02:54:16;;;;;;;90.25;46.75;;;;;;;2.92;85.83;103369.41;2063142;28;45330;-74
2022/01/25 02:55:18;;;;;;;85.60;44.95;;;;;;;2.92;86.43;103369.41;2063056;28;38268;-73
2022/01/25 02:56:22;;;;;;;94.32;48.13;;;;;;;2.92;86.51;103373.78;2063621;28;44395;-73
2022/01/25 02:57:25;;;;;;;80.07;43.42;;;;;;;2.91;86.66;103372.91;2062243;28;45147;-74
2022/01/25 02:58:28;;;;;;;93.10;47.83;;;;;;;2.91;86.46;103364.97;2063903;28;20072;-73
2022/01/25 02:59:29;;;;;;;95.32;49.65;;;;;;;2.91;86.69;103367.59;2063323;28;43834;-74
2022/01/25 03:00:32;;;;;;;86.85;47.28;;;;;;;2.92;86.55;103365.84;2063276;28;44915;-74
2022/01/25 03:01:35;;;;;;;87.95;45.25;;;;;;;2.90;86.36;103363.13;2062623;28;43730;-73
2022/01/25 03:02:37;;;;;;;78.05;42.53;;;;;;;2.90;86.52;103365.78;2054538;28;48042;-74
2022/01/25 03:03:39;;;;;;;83.65;44.00;;;;;;;2.90;86.71;103370.16;2055018;28;31784;-73
2022/01/25 03:04:41;;;;;;;90.90;47.90;;;;;;;2.91;86.45;103370.25;2063623;28;45251;-74
2022/01/25 03:05:43;;;;;;;85.45;45.47;;;;;;;2.91;86.66;103366.66;2062643;28;46278;-73
2022/01/25 03:06:45;;;;;;;80.55;43.40;;;;;;;2.90;86.59;103359.59;2063074;28;36005;-73
2022/01/25 03:07:48;;;;;;;82.65;44.85;;;;;;;2.91;86.44;103362.31;2064298;28;20078;-73
2022/01/25 03:08:50;;;;;;;90.88;48.58;;;;;;;2.90;86.42;103363.13;2064752;28;45722;-74
2022/01/25 03:09:53;;;;;;;84.53;45.10;;;;;;;2.91;86.52;103364.03;2058838;28;45513;-74
2022/01/25 03:10:55;;;;;;;85.85;46.08;;;;;;;2.90;86.99;103360.47;2055014;28;45165;-73
2022/01/25 03:11:59;;;;;;;84.28;45.72;;;;;;;2.91;86.77;103369.31;2055296;28;43120;-74
2022/01/25 03:13:01;;;;;;;88.78;47.00;;;;;;;2.91;86.71;103366.66;2055451;28;45229;-74
2022/01/25 03:14:08;;;;;;;82.93;42.65;;;;;;;2.90;87.00;103371.06;2055031;28;46196;-73
2022/01/25 03:16:30;;;;;;;89.75;47.78;;;;;;;2.90;86.74;103359.59;2054560;28;45167;-74
2022/01/25 03:17:32;;;;;;;83.43;44.85;;;;;;;2.89;86.98;103365.69;2054840;28;39468;-73
2022/01/25 03:20:51;;;;;;;91.60;49.65;;;;;;;2.88;86.73;103362.16;2055333;28;43024;-74
2022/01/25 03:21:54;;;;;;;77.22;43.70;;;;;;;2.88;86.44;103364.81;2056583;28;44131;-74
2022/01/25 03:22:59;;;;;;;77.88;41.88;;;;;;;2.89;86.39;103374.56;2062740;28;45825;-74
2022/01/25 03:24:05;;;;;;;85.10;46.53;;;;;;;2.89;86.75;103373.63;2063600;28;43157;-73
2022/01/25 03:25:07;;;;;;;88.40;46.50;;;;;;;2.88;86.52;103378.03;2062557;28;46510;-74
2022/01/25 03:26:09;;;;;;;82.90;45.00;;;;;;;2.89;86.90;103377.22;2062634;28;42421;-74
2022/01/25 03:27:11;;;;;;;83.43;45.25;;;;;;;2.90;87.15;103370.16;2062529;28;45441;-73
2022/01/25 03:28:12;;;;;;;88.35;47.10;;;;;;;2.88;86.91;103372.75;2062683;28;38168;-73
2022/01/25 03:29:14;;;;;;;77.82;42.42;;;;;;;2.89;86.86;103379.84;2062061;28;45106;-74
2022/01/25 03:30:16;;;;;;;79.78;44.03;;;;;;;2.89;86.54;103374.56;2063125;28;44176;-74
2022/01/25 03:31:18;;;;;;;86.85;46.53;;;;;;;2.89;86.81;103378.94;2063424;28;40214;-73
2022/01/25 03:32:20;;;;;;;80.45;42.45;;;;;;;2.90;87.00;103372.81;2062962;28;45605;-74
2022/01/25 03:33:21;;;;;;;72.85;41.40;;;;;;;2.89;86.93;103374.56;2062818;28;43710;-73
2022/01/25 03:34:23;;;;;;;90.47;48.65;;;;;;;2.89;86.88;103379.84;2062531;28;40744;-74
2022/01/25 03:35:25;;;;;;;90.82;47.17;;;;;;;2.88;87.00;103372.75;2063339;28;45162;-74
2022/01/25 03:36:28;;;;;;;88.72;46.70;;;;;;;2.89;87.36;103379.84;2063303;28;45942;-73
2022/01/25 03:37:32;;;;;;;87.38;45.97;;;;;;;2.88;86.94;103378.03;2063276;28;25448;-73
2022/01/25 03:38:40;;;;;;;91.18;47.00;;;;;;;2.89;87.15;103379.84;2062351;28;46220;-73
2022/01/25 03:39:42;;;;;;;85.55;45.38;;;;;;;2.89;87.33;103374.56;2062730;28;44355;-74
2022/01/25 03:40:45;;;;;;;85.07;45.10;;;;;;;2.88;87.29;103378.03;2062765;28;45588;-73
2022/01/25 03:41:47;;;;;;;83.88;43.85;;;;;;;2.88;87.40;103380.69;2063081;28;44824;-73
2022/01/25 03:42:49;;;;;;;83.88;44.53;;;;;;;2.89;87.65;103385.16;2063838;28;20825;-73
2022/01/25 03:43:56;;;;;;;91.88;47.05;;;;;;;2.89;87.16;103382.50;2063311;28;46710;-73
2022/01/25 03:45:00;;;;;;;79.70;43.55;;;;;;;2.87;86.96;103381.50;2062046;28;45023;-74
2022/01/25 03:46:11;;;;;;;85.32;45.35;;;;;;;2.87;86.97;103381.50;2065607;28;42690;-74
2022/01/25 03:47:18;;;;;;;79.05;43.90;;;;;;;2.89;87.09;103386.88;2063113;28;45705;-74
2022/01/25 03:50:45;;;;;;;88.85;47.38;;;;;;;2.90;87.13;103376.34;2063355;28;44576;-73
2022/01/25 03:51:47;;;;;;;84.10;42.80;;;;;;;2.89;86.85;103374.56;2063565;28;40021;-73
2022/01/25 03:52:49;;;;;;;82.30;43.47;;;;;;;2.88;87.19;103367.44;2063414;28;46236;-74
2022/01/25 03:53:53;;;;;;;81.60;43.78;;;;;;;2.89;87.22;103374.56;2063560;28;44152;-74
2022/01/25 03:54:55;;;;;;;84.32;47.55;;;;;;;2.89;86.78;103369.28;2063120;28;46489;-74
2022/01/25 03:55:56;;;;;;;84.43;45.58;;;;;;;2.90;87.11;103364.88;2062940;28;44735;-74
2022/01/25 03:56:58;;;;;;;90.55;47.47;;;;;;;2.88;87.86;103367.44;2054220;28;45546;-73
2022/01/25 03:58:00;;;;;;;80.60;43.97;;;;;;;2.89;87.66;103369.28;2054680;28;45497;-74
2022/01/25 03:59:05;;;;;;;88.10;46.53;;;;;;;2.89;87.25;103377.22;2063736;28;43760;-74
2022/01/25 04:00:09;;;;;;;83.78;44.92;;;;;;;2.90;87.16;103368.41;2063455;28;41216;-74
2022/01/25 04:01:14;;;;;;;83.32;46.17;;;;;;;2.89;87.35;103369.28;2064285;28;20932;-74
2022/01/25 04:02:16;;;;;;;85.25;46.17;;;;;;;2.92;87.26;103371.16;2063424;28;45175;-73
2022/01/25 04:03:30;;;;;;;73.43;40.97;;;;;;;2.91;87.39;103371.97;2063465;28;46829;-74
2022/01/25 04:04:33;;;;;;;84.05;44.22;;;;;;;2.92;87.67;103376.44;2063187;28;43209;-73
2022/01/25 04:07:13;;;;;;;74.05;39.40;;;;;;;2.91;87.04;103372.91;2063277;28;20977;-73
2022/01/25 04:08:17;;;;;;;69.97;39.00;;;;;;;2.92;87.40;103371.16;2062733;28;43881;-73
2022/01/25 04:09:20;;;;;;;81.72;44.95;;;;;;;2.91;87.28;103372.91;2062811;28;46637;-73
2022/01/25 04:10:22;;;;;;;83.97;44.30;;;;;;;2.91;87.54;103374.59;2063373;28;44515;-73
2022/01/25 04:11:23;;;;;;;85.07;45.25;;;;;;;2.92;87.48;103377.34;2063173;28;20101;-73
2022/01/25 04:12:25;;;;;;;77.20;42.22;;;;;;;2.91;86.97;103378.19;2062785;28;38553;-73
2022/01/25 04:13:27;;;;;;;76.93;43.13;;;;;;;2.91;87.39;103371.97;2063376;28;43821;-73
2022/01/25 04:14:29;;;;;;;82.35;44.47;;;;;;;2.91;87.77;103380.84;2062883;28;41760;-73
2022/01/25 04:15:31;;;;;;;87.43;45.13;;;;;;;2.92;87.55;103381.72;2063527;28;43001;-73
2022/01/25 04:16:38;;;;;;;72.85;39.20;;;;;;;2.92;87.64;103379.97;2063041;28;45710;-73
2022/01/25 04:17:43;;;;;;;81.22;43.17;;;;;;;2.90;87.82;103376.34;2063839;28;45799;-73
2022/01/25 04:20:24;;;;;;;82.03;42.30;;;;;;;2.92;87.17;103371.16;2064336;28;20105;-72
2022/01/25 04:25:14;;;;;;;80.07;42.30;;;;;;;2.90;88.07;103371.06;2064480;28;39325;-75
2022/01/25 04:26:18;;;;;;;69.93;38.65;;;;;;;2.90;87.46;103371.06;2064678;28;42897;-73
2022/01/25 04:27:24;;;;;;;82.65;42.42;;;;;;;2.90;87.65;103371.06;2065386;28;20047;-73
2022/01/25 04:28:26;;;;;;;86.35;45.72;;;;;;;2.89;87.76;103366.63;2064972;28;37697;-73
2022/01/25 04:29:28;;;;;;;78.88;43.53;;;;;;;2.89;88.20;103363.97;2065463;28;20046;-73
2022/01/25 04:30:30;;;;;;;83.93;43.28;;;;;;;2.91;87.46;103377.25;2063454;28;43042;-73
2022/01/25 04:31:31;;;;;;;75.45;40.25;;;;;;;2.89;87.52;103374.56;2055690;28;44284;-75
2022/01/25 04:32:46;;;;;;;87.10;46.53;;;;;;;2.89;87.55;103374.56;2055422;28;44740;-73
2022/01/25 04:34:11;;;;;;;77.43;41.40;;;;;;;2.90;87.74;103370.16;2064911;28;20050;-73
2022/01/25 04:36:55;;;;;;;81.93;43.63;;;;;;;2.90;87.93;103365.78;2057733;28;39788;-73
2022/01/25 04:49:15;;;;;;;78.95;39.35;;;;;;;2.91;87.76;103350.78;2064285;28;44994;-75
2022/01/25 04:50:23;;;;;;;73.65;37.88;;;;;;;2.90;88.09;103343.72;2064636;28;43752;-75
2022/01/25 04:52:32;;;;;;;86.95;42.88;;;;;;;2.90;87.79;103347.25;2063207;28;46213;-75
2022/01/25 04:55:45;;;;;;;75.45;40.92;;;;;;;2.90;88.04;103344.59;2064040;28;43491;-74
2022/01/25 04:57:57;;;;;;;76.85;40.85;;;;;;;2.90;88.27;103357.84;2055077;28;44222;-75
2022/01/25 04:59:10;;;;;;;83.32;43.05;;;;;;;2.90;88.43;103356.94;2056901;28;44827;-75
2022/01/25 05:00:19;;;;;;;80.82;41.78;;;;;;;2.89;88.37;103353.41;2065337;28;43304;-75
2022/01/25 05:01:20;;;;;;;84.35;43.10;;;;;;;2.89;88.33;103356.03;2063815;28;46006;-74
2022/01/25 05:03:31;;;;;;;80.25;43.03;;;;;;;2.90;88.40;103349.91;2064055;28;44670;-74
2022/01/25 05:04:39;;;;;;;86.72;45.72;;;;;;;2.88;88.66;103351.56;2063732;28;43046;-75
2022/01/25 05:06:27;;;;;;;78.82;40.42;;;;;;;2.90;88.65;103351.66;2064482;28;43338;-74
2022/01/25 05:07:08;;;;;;;82.22;41.85;;;;;;;2.91;88.53;103356.09;2059187;28;43142;-75
2022/01/25 05:09:21;;;;;;;;;;;;;;;2.91;88.53;103348.16;2064656;28;46444;-74
2022/01/25 05:10:22;;;;;;;72.38;38.20;;;;;;;2.91;88.87;103351.72;2063978;28;43059;-75
2022/01/25 05:11:31;;;;;;;75.60;39.50;;;;;;;2.91;nan;103345.50;2063320;28;43506;-74
2022/01/25 05:15:38;;;;;;;82.90;43.20;;;;;;;2.90;88.68;103346.34;2063696;28;45342;-74
2022/01/25 05:16:55;;;;;;;87.70;44.75;;;;;;;2.90;88.78;103347.25;2064027;28;43939;-74
2022/01/25 05:18:12;;;;;;;83.35;43.28;;;;;;;2.90;88.68;103346.34;2062850;28;43151;-74
2022/01/25 05:22:58;;;;;;;86.03;42.55;;;;;;;2.90;88.71;103349.00;2064560;28;44648;-73
2022/01/25 05:24:00;;;;;;;85.28;44.90;;;;;;;2.89;88.87;103350.75;2064398;28;40392;-75
2022/01/25 05:25:01;;;;;;;83.70;43.60;;;;;;;2.88;89.00;103346.28;2063857;28;44020;-73
2022/01/25 05:26:03;;;;;;;65.80;35.72;;;;;;;2.91;88.60;103345.50;2064409;28;44508;-75
2022/01/25 05:27:07;;;;;;;82.60;44.30;;;;;;;2.91;88.86;103351.72;2064097;28;45315;-73
2022/01/25 05:28:09;;;;;;;80.15;43.63;;;;;;;2.91;89.39;103349.06;2064276;28;45825;-73
2022/01/25 05:29:11;;;;;;;85.60;45.80;;;;;;;2.89;88.93;103340.16;2063817;28;45136;-73
2022/01/25 05:30:12;;;;;;;76.28;39.63;;;;;;;2.92;89.20;103360.56;2065689;28;45135;-73
2022/01/25 05:31:14;;;;;;;77.35;41.13;;;;;;;2.91;88.61;103350.78;2055938;28;43071;-73
2022/01/25 05:32:17;;;;;;;81.75;43.92;;;;;;;2.90;88.90;103349.91;2056121;28;41462;-73
2022/01/25 05:33:21;;;;;;;71.40;38.92;;;;;;;2.92;89.16;103347.34;2063289;28;45635;-73
2022/01/25 05:34:23;;;;;;;77.95;41.15;;;;;;;2.91;88.89;103351.72;2063588;28;42910;-73
2022/01/25 05:35:25;;;;;;;83.32;43.92;;;;;;;2.91;88.70;103359.66;2063991;28;46005;-73
2022/01/25 05:36:26;;;;;;;73.75;38.30;;;;;;;2.92;89.07;103358.81;2064363;28;44972;-73
2022/01/25 05:37:31;;;;;;;74.95;39.85;;;;;;;2.93;88.85;103358.00;2064654;28;45063;-73
2022/01/25 05:38:35;;;;;;;79.93;41.03;;;;;;;2.92;88.76;103347.34;2063504;28;45332;-73
2022/01/25 05:39:38;;;;;;;77.93;42.13;;;;;;;2.92;88.93;103358.81;2063842;28;44597;-73
2022/01/25 05:40:44;;;;;;;75.20;39.65;;;;;;;2.92;88.95;103356.16;2064235;28;43908;-73
2022/01/25 05:41:54;;;;;;;78.32;42.03;;;;;;;2.93;89.14;103365.94;2064042;28;44725;-73
2022/01/25 05:44:40;;;;;;;85.15;42.80;;;;;;;2.92;89.27;103372.03;2064028;28;45836;-73
2022/01/25 05:47:07;;;;;;;74.55;39.17;;;;;;;2.93;89.33;103371.22;2065287;28;20043;-73
2022/01/25 05:48:09;;;;;;;80.13;41.30;;;;;;;2.94;88.94;103365.06;2063840;28;44279;-74
2022/01/25 05:49:13;;;;;;;82.68;43.80;;;;;;;2.94;88.98;103364.19;2055688;28;43760;-73
2022/01/25 05:50:16;;;;;;;73.20;37.15;;;;;;;2.94;89.11;103364.19;2064723;28;20083;-74
2022/01/25 05:51:17;;;;;;;85.78;44.25;;;;;;;2.94;88.98;103357.13;2063774;28;45036;-73
2022/01/25 05:52:19;;;;;;;74.20;37.67;;;;;;;2.94;88.90;103364.19;2063340;28;44043;-73
2022/01/25 05:53:21;;;;;;;80.00;43.17;;;;;;;2.94;89.59;103367.72;2063607;28;45861;-73
2022/01/25 05:54:23;;;;;;;86.13;44.63;;;;;;;2.96;89.07;103375.75;2063119;28;45487;-74
2022/01/25 05:55:24;;;;;;;79.82;41.17;;;;;;;2.94;89.11;103367.72;2063136;28;46964;-73
2022/01/25 05:56:27;;;;;;;79.93;40.92;;;;;;;2.95;89.18;103368.66;2065141;28;20189;-73
2022/01/25 05:57:28;;;;;;;78.70;41.58;;;;;;;2.96;88.74;103367.81;2063749;28;40992;-73
2022/01/25 05:58:30;;;;;;;75.65;39.17;;;;;;;2.94;89.37;103359.78;2063448;28;45283;-73
2022/01/25 05:59:32;;;;;;;74.40;38.95;;;;;;;2.95;89.05;103371.31;2063388;28;43522;-73
2022/01/25 06:00:34;;;;;;;78.93;40.13;;;;;;;2.96;89.01;103370.44;2063835;28;46366;-73
2022/01/25 06:01:36;;;;;;;75.82;39.33;;;;;;;2.96;89.16;103367.81;2064948;28;44118;-73
2022/01/25 06:02:38;;;;;;;66.45;35.42;;;;;;;2.97;89.17;103378.47;2063977;28;42956;-73
2022/01/25 06:03:42;;;;;;;75.35;39.58;;;;;;;2.97;89.02;103369.63;2064207;28;46288;-74
2022/01/25 06:04:47;;;;;;;79.72;42.88;;;;;;;2.97;89.27;103369.63;2063790;28;42713;-74
2022/01/25 06:05:49;;;;;;;65.53;35.15;;;;;;;2.97;89.17;103366.97;2063871;28;43841;-73
2022/01/25 06:06:51;;;;;;;94.28;48.45;;;;;;;2.97;89.53;103364.34;2063422;28;43433;-74
2022/01/25 06:07:52;;;;;;;80.85;43.17;;;;;;;2.97;89.46;103362.59;2064416;28;38202;-73
2022/01/25 06:08:54;;;;;;;83.35;43.78;;;;;;;2.97;89.25;103365.22;2063836;28;46048;-74
2022/01/25 06:09:56;;;;;;;96.47;50.50;;;;;;;2.96;89.45;103360.78;2064383;28;42497;-73
2022/01/25 06:10:58;;;;;;;110.32;57.15;;;;;;;2.96;89.90;103363.44;2064190;28;43920;-73
2022/01/25 06:11:59;;;;;;;94.93;48.88;;;;;;;2.95;90.04;103366.91;2063603;28;46356;-75
2022/01/25 06:13:01;;;;;;;87.05;46.28;;;;;;;2.97;89.19;103356.41;2063878;28;42814;-73
2022/01/25 06:14:04;;;;;;;93.97;48.65;;;;;;;2.97;89.39;103362.59;2063610;28;45508;-73
2022/01/25 06:15:06;;;;;;;87.05;44.58;;;;;;;2.96;89.79;103360.78;2064281;28;44567;-73
2022/01/25 06:16:10;;;;;;;85.70;45.15;;;;;;;2.96;89.53;103359.88;2063947;28;45281;-73
2022/01/25 06:17:12;;;;;;;80.25;42.63;;;;;;;2.95;90.10;103361.63;2063516;28;44058;-73
2022/01/25 06:18:15;;;;;;;71.50;36.97;;;;;;;2.96;89.46;103359.88;2063498;28;42737;-73
2022/01/25 06:19:17;;;;;;;78.68;41.00;;;;;;;2.95;89.29;103358.97;2064111;28;46302;-73
2022/01/25 06:20:19;;;;;;;81.72;42.08;;;;;;;2.96;89.42;103365.16;2063930;28;44561;-73
2022/01/25 06:21:21;;;;;;;81.65;44.13;;;;;;;2.95;89.52;103366.91;2063538;28;43516;-73
2022/01/25 06:22:22;;;;;;;81.50;42.25;;;;;;;2.94;89.41;103367.72;2063305;28;45819;-73
2022/01/25 06:23:24;;;;;;;83.32;43.35;;;;;;;2.94;89.93;103357.13;2064312;28;44952;-73
2022/01/25 06:24:26;;;;;;;80.35;42.42;;;;;;;2.94;89.79;103357.13;2063794;28;44277;-73
2022/01/25 06:25:27;;;;;;;92.30;46.67;;;;;;;2.93;89.89;103362.38;2063319;28;43322;-73
2022/01/25 06:26:32;;;;;;;73.03;39.75;;;;;;;2.94;89.74;103364.19;2063260;28;45116;-73
2022/01/25 06:27:34;;;;;;;87.78;44.13;;;;;;;2.94;89.58;103366.81;2063567;28;45158;-73
2022/01/25 06:28:36;;;;;;;79.68;40.15;;;;;;;2.93;89.52;103371.22;2064162;28;44684;-73
2022/01/25 06:29:41;;;;;;;93.30;45.40;;;;;;;2.93;89.97;103363.28;2064509;28;20085;-73
2022/01/25 06:30:42;;;;;;;87.13;46.33;;;;;;;2.93;90.15;103370.31;2063924;28;45856;-73
2022/01/25 06:31:48;;;;;;;81.45;44.78;;;;;;;2.92;89.84;103374.69;2064199;28;37604;-73
2022/01/25 06:32:50;;;;;;;83.68;45.60;;;;;;;2.92;89.85;103372.03;2063953;28;46410;-73
2022/01/25 06:33:52;;;;;;;82.10;43.30;;;;;;;2.93;89.79;103373.88;2064106;28;43257;-73
2022/01/25 06:34:53;;;;;;;88.55;45.22;;;;;;;2.93;90.06;103376.50;2063840;28;44560;-73